Aeroporto :
LOGIN :

Iscrizione | Disclaimer

   EN    FR    IT 

 










Sommario :    VFR   VFR Marginale   IFR   IFR Intensivo   IFR Molto Intensivo
Visibilità : 
Base nubi : 
>= 8 km
>= 3000ft
5 / 8 km
1000 / 3000 ft
1500m / 5 km
500 / 1000 ft
800 / 1500m
200 / 500 ft
< 800m
< 200 ft
Simboli :   Temporali  Nebbia  Neve Forte  Precipitazioni Forti  Vento > 20 kt
SIGMETs :   Varie  Temporali  Ghiacco  Turbolenza  Onda orograficha  Ceneri Vulcaniche






- Altitudine del aeroporto : 935 ft


EBFS - Florennes

ULTIMO METAR :
  • 291333Z AUTO 26017KT 9999 SCT011/// BKN032/// OVC045/// 05/04 Q0991 GRN

METARs OBSOLETI :
  • 291313Z AUTO 26015KT 9999 -RA FEW007/// BKN029/// BKN040/// 05/04 Q0990 BLU
  • 291255Z AUTO 27022G34KT 9999 -RA FEW012/// SCT021/// BKN032/// 04/04 Q0990 WHT
  • 291247Z AUTO 22021G34KT 3000 +RA FEW024/// SCT031/// BKN036/// 07/06 Q0990 YLO
  • 291225Z AUTO 21020KT 9999 -RA SCT031/// OVC038/// 10/05 Q0988 BLU
  • 291155Z AUTO 21024G35KT 9999 FEW034/// BKN040/// BKN130/// 11/05 Q0988 BLU
  • 291125Z AUTO 20023G36KT 9999 FEW040/// SCT120/// BKN220/// 11/04 Q0989 BLU
  • 291055Z AUTO 19019G30KT 9999 FEW065/// SCT095/// BKN110/// 10/04 Q0989 BLU

Previsioni scadute.



MetMap, La meteo Aeronautica in un colpo d'occhio ! - Copyright ORBIFLY Dicembre 2007 - Disclaimer

ORBIFLY MET'MAP TEAM :

Programmazione e sviluppo : Alexandra Zaïnal
Concezione : Baudouin d'Aumeries
Aiuto per la programmazione : Marc-Olivier Méhu
Supporto tecnico e logistico : Manuel Goepfert
Aiuto per la traduzione : Arnaldo La Scala

Contatto : metmap@orbifly.com




FONTI E CREDITI :

   NOAA